createdAt,value
2023-05-24T00:00:22.228Z,7.22
2023-05-24T00:02:49.995Z,6.65
2023-05-24T00:05:18.838Z,5.70
2023-05-24T00:07:46.168Z,5.00
2023-05-24T00:10:13.481Z,4.57
2023-05-24T00:12:40.710Z,5.32
2023-05-24T00:15:08.540Z,4.25
2023-05-24T00:17:41.452Z,4.72
2023-05-24T00:20:12.184Z,5.57
2023-05-24T00:22:40.274Z,6.30
2023-05-24T00:25:08.138Z,5.28
2023-05-24T00:27:37.358Z,6.95
2023-05-24T00:30:07.458Z,6.57
2023-05-24T00:32:34.821Z,5.13
2023-05-24T00:35:02.053Z,5.53
2023-05-24T00:37:29.712Z,4.18
2023-05-24T00:39:56.973Z,5.30
2023-05-24T00:42:26.449Z,5.68
2023-05-24T00:44:53.736Z,4.85
2023-05-24T00:47:21.083Z,4.38
2023-05-24T00:49:48.300Z,5.47
2023-05-24T00:52:16.554Z,4.43
2023-05-24T00:54:44.135Z,5.70
2023-05-24T00:57:14.003Z,7.43
2023-05-24T00:59:41.494Z,2.42
2023-05-24T01:02:08.720Z,3.70
2023-05-24T01:04:38.186Z,3.33
2023-05-24T01:07:32.804Z,3.88
2023-05-24T01:10:04.245Z,4.63
2023-05-24T01:12:59.706Z,3.78
2023-05-24T01:15:51.271Z,4.75
2023-05-24T01:18:30.475Z,4.03
2023-05-24T01:21:26.883Z,6.75
2023-05-24T01:24:02.274Z,5.45
2023-05-24T01:26:58.467Z,5.20
2023-05-24T01:29:27.278Z,4.18
2023-05-24T01:31:54.733Z,3.45
2023-05-24T01:34:24.559Z,3.25
2023-05-24T01:36:51.799Z,5.60
2023-05-24T01:39:20.299Z,4.20
2023-05-24T01:42:08.739Z,5.13
2023-05-24T01:44:48.217Z,4.93
2023-05-24T01:47:30.996Z,4.03
2023-05-24T01:50:02.902Z,3.63
2023-05-24T01:52:32.264Z,4.03
2023-05-24T01:55:00.473Z,4.68
2023-05-24T01:57:28.170Z,4.50
2023-05-24T01:59:56.283Z,4.97
2023-05-24T02:02:23.821Z,3.70
2023-05-24T02:04:51.196Z,2.50
2023-05-24T02:07:19.309Z,3.63
2023-05-24T02:09:46.555Z,3.27
2023-05-24T02:12:13.811Z,2.70
2023-05-24T02:14:42.665Z,5.45
2023-05-24T02:19:37.373Z,5.55
2023-05-24T02:22:04.699Z,4.88
2023-05-24T02:24:31.919Z,2.80
2023-05-24T02:26:59.154Z,3.28
2023-05-24T02:29:26.373Z,4.30
2023-05-24T02:31:56.513Z,4.05
2023-05-24T02:34:24.223Z,3.28
2023-05-24T02:36:52.050Z,2.10
2023-05-24T02:39:19.306Z,3.40
2023-05-24T02:41:46.594Z,4.10
2023-05-24T02:44:13.827Z,4.65
2023-05-24T02:46:41.264Z,4.03
2023-05-24T02:49:09.929Z,3.20
2023-05-24T02:51:37.458Z,4.10
2023-05-24T02:54:04.817Z,4.05
2023-05-24T02:56:32.128Z,7.63
2023-05-24T02:58:59.368Z,4.53
2023-05-24T03:01:27.929Z,4.55
2023-05-24T03:03:55.294Z,3.20
2023-05-24T03:06:25.619Z,3.17
2023-05-24T03:08:53.004Z,4.28
2023-05-24T03:11:24.080Z,3.58
2023-05-24T03:13:51.320Z,3.47
2023-05-24T03:16:19.808Z,3.45
2023-05-24T03:18:47.371Z,2.58
2023-05-24T03:21:14.745Z,1.80
2023-05-24T03:23:42.035Z,4.13
2023-05-24T03:26:09.674Z,2.78
2023-05-24T03:28:36.966Z,2.30
2023-05-24T03:31:04.424Z,2.97
2023-05-24T03:33:32.162Z,3.95
2023-05-24T03:36:00.429Z,2.72
2023-05-24T03:38:27.706Z,3.40
2023-05-24T03:40:54.964Z,3.40
2023-05-24T03:43:22.188Z,5.18
2023-05-24T03:45:49.498Z,2.67
2023-05-24T03:48:16.946Z,3.17
2023-05-24T03:50:44.442Z,4.75
2023-05-24T03:53:11.890Z,4.15
2023-05-24T03:55:41.501Z,2.45
2023-05-24T03:58:08.747Z,3.42
2023-05-24T04:00:36.134Z,4.30
2023-05-24T04:03:03.742Z,3.20
2023-05-24T04:05:31.070Z,3.08
2023-05-24T04:07:58.560Z,3.08
2023-05-24T04:10:25.904Z,3.53
2023-05-24T04:12:53.188Z,3.20
2023-05-24T04:15:21.292Z,2.72
2023-05-24T04:17:48.744Z,4.30
2023-05-24T04:20:16.105Z,4.10
2023-05-24T04:22:43.460Z,4.20
2023-05-24T04:25:15.796Z,5.05
2023-05-24T04:27:43.141Z,4.65
2023-05-24T04:30:10.856Z,4.45
2023-05-24T04:32:38.146Z,2.13
2023-05-24T04:35:05.822Z,4.20
2023-05-24T04:37:33.919Z,6.47
2023-05-24T04:40:01.396Z,2.83
2023-05-24T04:42:32.211Z,3.25
2023-05-24T04:44:59.867Z,2.15
2023-05-24T04:47:27.140Z,4.13
2023-05-24T04:49:54.438Z,2.72
2023-05-24T04:52:21.781Z,3.45
2023-05-24T04:54:49.954Z,5.47
2023-05-24T04:57:17.257Z,3.37
2023-05-24T04:59:44.959Z,3.95
2023-05-24T05:02:12.252Z,1.67
2023-05-24T05:04:39.529Z,4.63
2023-05-24T05:07:06.952Z,3.70
2023-05-24T05:09:34.179Z,5.45
2023-05-24T05:12:01.434Z,3.75
2023-05-24T05:14:29.122Z,2.83
2023-05-24T05:16:56.566Z,2.60
2023-05-24T05:19:23.978Z,6.18
2023-05-24T05:21:51.689Z,2.70
2023-05-24T05:24:19.450Z,7.00
2023-05-24T05:26:47.289Z,15.93
2023-05-24T05:29:14.550Z,18.75
2023-05-24T05:31:41.782Z,23.27
2023-05-24T05:34:10.111Z,22.58
2023-05-24T05:36:42.534Z,18.02
2023-05-24T05:39:10.040Z,19.45
2023-05-24T05:41:45.501Z,16.45
2023-05-24T05:44:13.772Z,17.48
2023-05-24T05:46:43.777Z,27.48
2023-05-24T05:49:11.414Z,19.60
2023-05-24T05:51:39.148Z,16.67
2023-05-24T05:54:06.659Z,18.83
2023-05-24T05:56:38.221Z,13.02
2023-05-24T05:59:05.570Z,21.15
2023-05-24T06:01:33.074Z,19.33
2023-05-24T06:04:00.373Z,18.10
2023-05-24T06:06:27.636Z,18.65
2023-05-24T06:08:54.865Z,20.60
2023-05-24T06:11:22.121Z,23.63
2023-05-24T06:13:49.386Z,19.67
2023-05-24T06:16:16.673Z,21.65
2023-05-24T06:18:57.272Z,18.92
2023-05-24T06:21:32.254Z,24.85
2023-05-24T06:23:59.779Z,23.35
2023-05-24T06:26:27.188Z,15.63
2023-05-24T06:28:54.583Z,13.35
2023-05-24T06:31:22.134Z,16.23
2023-05-24T06:34:02.682Z,19.17
2023-05-24T06:36:34.004Z,15.20
2023-05-24T06:39:01.553Z,18.65
2023-05-24T06:41:29.105Z,12.45
2023-05-24T06:43:56.318Z,19.20
2023-05-24T06:46:23.618Z,13.45
2023-05-24T06:48:51.086Z,12.10
2023-05-24T06:51:18.444Z,16.52
2023-05-24T06:53:45.694Z,16.38
2023-05-24T06:56:13.044Z,12.32
2023-05-24T06:58:40.573Z,17.17
2023-05-24T07:01:08.763Z,22.58
2023-05-24T07:03:36.283Z,24.98
2023-05-24T07:06:04.053Z,23.52
2023-05-24T07:08:31.411Z,19.20
2023-05-24T07:10:58.672Z,23.45
2023-05-24T07:13:26.025Z,22.83
2023-05-24T07:15:53.305Z,22.75
2023-05-24T07:18:20.767Z,20.88
2023-05-24T07:20:48.194Z,32.35
2023-05-24T07:23:15.768Z,26.73
2023-05-24T07:25:42.999Z,20.77
2023-05-24T07:28:10.240Z,20.67
2023-05-24T07:30:39.385Z,17.83
2023-05-24T07:33:06.718Z,23.65
2023-05-24T07:35:34.018Z,19.90
2023-05-24T07:38:01.302Z,17.33
2023-05-24T07:40:28.563Z,20.33
2023-05-24T07:42:56.129Z,19.05
2023-05-24T07:45:23.483Z,18.58
2023-05-24T07:47:50.873Z,17.52
2023-05-24T07:50:18.794Z,17.98
2023-05-24T07:52:48.860Z,15.38
2023-05-24T07:55:16.106Z,20.05
2023-05-24T07:57:43.326Z,18.25
2023-05-24T08:00:14.683Z,20.13
2023-05-24T08:02:44.356Z,16.80
2023-05-24T08:05:13.083Z,22.45
2023-05-24T08:07:41.684Z,18.00
2023-05-24T08:10:14.058Z,22.40
2023-05-24T08:12:41.803Z,18.75
2023-05-24T08:15:09.466Z,16.90
2023-05-24T08:17:37.108Z,20.83
2023-05-24T08:20:13.770Z,15.05
2023-05-24T08:22:41.310Z,18.60
2023-05-24T08:25:09.146Z,20.40
2023-05-24T08:27:37.250Z,17.77
2023-05-24T08:30:04.719Z,17.30
2023-05-24T08:32:32.425Z,14.35
2023-05-24T08:35:17.579Z,17.73
2023-05-24T08:37:47.947Z,18.98
2023-05-24T08:40:15.471Z,20.05
2023-05-24T08:42:42.950Z,15.90
2023-05-24T08:45:12.866Z,15.90
2023-05-24T08:47:42.851Z,15.43
2023-05-24T08:50:10.716Z,14.95
2023-05-24T08:52:38.260Z,21.38
2023-05-24T08:55:06.015Z,16.27
2023-05-24T08:57:39.918Z,17.27
2023-05-24T09:00:12.789Z,16.27
2023-05-24T09:02:42.161Z,15.30
2023-05-24T09:05:11.930Z,16.38
2023-05-24T09:07:42.421Z,14.70
2023-05-24T09:10:10.581Z,19.08
2023-05-24T09:12:39.598Z,16.03
2023-05-24T09:15:08.721Z,22.17
2023-05-24T09:17:37.860Z,17.05
2023-05-24T09:20:10.592Z,16.15
2023-05-24T09:22:41.164Z,21.35
2023-05-24T09:25:11.089Z,15.80
2023-05-24T09:27:38.864Z,16.83
2023-05-24T09:30:10.681Z,13.60
2023-05-24T09:32:38.219Z,17.75
2023-05-24T09:35:09.407Z,10.70
2023-05-24T09:37:38.781Z,13.57
2023-05-24T09:40:10.942Z,10.48
2023-05-24T09:42:38.408Z,13.88
2023-05-24T09:45:08.633Z,13.20
2023-05-24T09:47:37.524Z,12.43
2023-05-24T09:52:39.681Z,12.87
2023-05-24T09:55:17.289Z,12.18
2023-05-24T09:57:45.590Z,11.80
2023-05-24T10:00:16.640Z,15.60
2023-05-24T10:02:53.408Z,15.27
2023-05-24T10:05:21.647Z,12.02
2023-05-24T10:07:49.558Z,15.65
2023-05-24T10:10:18.982Z,10.65
2023-05-24T10:12:47.620Z,10.23
2023-05-24T10:15:14.916Z,11.55
2023-05-24T10:17:42.255Z,10.43
2023-05-24T10:20:12.460Z,11.25
2023-05-24T10:22:45.413Z,9.75
2023-05-24T10:25:23.434Z,8.88
2023-05-24T10:27:53.697Z,8.05
2023-05-24T10:30:36.214Z,10.82
2023-05-24T10:33:05.727Z,9.13
2023-05-24T10:35:33.944Z,11.52
2023-05-24T10:38:07.417Z,7.70
2023-05-24T10:40:34.992Z,7.32
2023-05-24T10:43:08.208Z,11.38
2023-05-24T10:45:38.719Z,11.98
2023-05-24T10:48:13.349Z,8.25
2023-05-24T10:50:41.965Z,9.45
2023-05-24T10:53:16.972Z,7.93
2023-05-24T10:56:00.219Z,6.43
2023-05-24T10:59:00.349Z,6.47
2023-05-24T11:01:32.409Z,9.98
2023-05-24T11:04:15.723Z,9.13
2023-05-24T11:07:03.093Z,10.48
2023-05-24T11:09:30.553Z,9.77
2023-05-24T11:12:07.269Z,12.07
2023-05-24T11:14:39.737Z,10.40
2023-05-24T11:17:08.195Z,7.85
2023-05-24T11:19:37.395Z,6.88
2023-05-24T11:22:09.041Z,11.63
2023-05-24T11:24:37.003Z,7.07
2023-05-24T11:27:04.449Z,7.00
2023-05-24T11:29:31.779Z,11.85
2023-05-24T11:32:05.301Z,11.80
2023-05-24T11:34:33.737Z,8.32
2023-05-24T11:37:02.407Z,8.43
2023-05-24T11:39:34.441Z,8.27
2023-05-24T11:42:02.615Z,8.85
2023-05-24T11:44:31.827Z,6.60
2023-05-24T11:47:00.252Z,9.20
2023-05-24T11:49:27.744Z,10.63
2023-05-24T11:51:56.985Z,10.20
2023-05-24T11:54:25.230Z,12.40
2023-05-24T11:56:54.077Z,10.17
2023-05-24T11:59:26.445Z,5.88
2023-05-24T12:02:05.552Z,9.00
2023-05-24T12:04:33.304Z,10.18
2023-05-24T12:07:01.082Z,9.88
2023-05-24T12:09:28.718Z,6.13
2023-05-24T12:11:58.813Z,9.80
2023-05-24T12:14:32.771Z,7.78
2023-05-24T12:17:00.963Z,8.10
2023-05-24T12:19:34.845Z,8.90
2023-05-24T12:22:07.426Z,9.00
2023-05-24T12:24:35.774Z,7.35
2023-05-24T12:27:07.795Z,5.57
2023-05-24T12:29:37.137Z,5.07
2023-05-24T12:32:12.646Z,4.13
2023-05-24T12:34:47.699Z,7.75
2023-05-24T12:37:15.327Z,7.00
2023-05-24T12:39:44.250Z,11.32
2023-05-24T12:42:16.095Z,7.60
2023-05-24T12:44:45.087Z,9.32
2023-05-24T12:47:12.582Z,4.38
2023-05-24T12:49:39.826Z,5.95
2023-05-24T12:52:07.207Z,6.53
2023-05-24T12:54:34.549Z,4.75
2023-05-24T12:57:03.383Z,6.40
2023-05-24T13:01:58.391Z,4.13
2023-05-24T13:04:30.524Z,9.30
2023-05-24T13:06:57.848Z,8.60
2023-05-24T13:09:26.047Z,7.65
2023-05-24T13:11:55.253Z,6.53
2023-05-24T13:14:22.751Z,9.30
2023-05-24T13:16:50.226Z,6.63
2023-05-24T13:19:17.780Z,6.63
2023-05-24T13:21:45.270Z,7.47
2023-05-24T13:24:16.797Z,7.82
2023-05-24T13:26:44.683Z,5.95
2023-05-24T13:31:42.533Z,10.80
2023-05-24T13:34:11.174Z,7.93
2023-05-24T13:36:39.152Z,6.25
2023-05-24T13:41:40.660Z,6.50
2023-05-24T13:44:08.572Z,10.02
2023-05-24T13:46:36.384Z,8.70
2023-05-24T13:49:04.425Z,6.60
2023-05-24T13:51:31.767Z,10.18
2023-05-24T13:53:59.615Z,8.68
2023-05-24T13:56:32.608Z,11.90
2023-05-24T13:59:01.412Z,5.03
2023-05-24T14:01:29.236Z,12.20
2023-05-24T14:03:56.455Z,6.90
2023-05-24T14:06:23.838Z,8.30
2023-05-24T14:08:51.180Z,7.78
2023-05-24T14:11:19.586Z,7.25
2023-05-24T14:16:17.293Z,7.00
2023-05-24T14:18:45.740Z,9.23
2023-05-24T14:21:13.035Z,6.65
2023-05-24T14:23:41.529Z,6.88
2023-05-24T14:26:08.820Z,7.15
2023-05-24T14:28:36.121Z,6.72
2023-05-24T14:31:03.421Z,8.48
2023-05-24T14:33:30.818Z,6.18
2023-05-24T14:35:58.077Z,6.28
2023-05-24T14:38:25.681Z,9.63
2023-05-24T14:40:53.094Z,7.45
2023-05-24T14:43:20.407Z,10.10
2023-05-24T14:45:47.931Z,11.48
2023-05-24T14:48:16.792Z,6.68
2023-05-24T14:50:44.156Z,7.82
2023-05-24T14:53:12.768Z,10.20
2023-05-24T14:55:42.235Z,9.85
2023-05-24T14:58:11.713Z,7.53
2023-05-24T15:00:40.612Z,11.40
2023-05-24T15:03:10.958Z,6.82
2023-05-24T15:05:39.257Z,9.35
2023-05-24T15:08:07.938Z,13.75
2023-05-24T15:10:35.581Z,9.48
2023-05-24T15:13:03.891Z,6.65
2023-05-24T15:15:31.497Z,8.38
2023-05-24T15:18:00.174Z,4.57
2023-05-24T15:20:27.854Z,4.90
2023-05-24T15:22:55.507Z,10.57
2023-05-24T15:25:24.057Z,8.10
2023-05-24T15:27:52.010Z,8.80
2023-05-24T15:30:23.954Z,7.40
2023-05-24T15:32:51.443Z,4.63
2023-05-24T15:35:18.979Z,7.53
2023-05-24T15:37:46.452Z,9.20
2023-05-24T15:40:15.189Z,8.70
2023-05-24T15:42:42.520Z,6.03
2023-05-24T15:45:10.683Z,6.95
2023-05-24T15:47:40.584Z,9.00
2023-05-24T15:50:08.884Z,9.48
2023-05-24T15:52:36.720Z,6.25
2023-05-24T15:55:04.477Z,7.25
2023-05-24T15:57:32.186Z,4.93
2023-05-24T15:59:59.683Z,10.70
2023-05-24T16:02:27.339Z,9.02
2023-05-24T16:04:55.524Z,8.88
2023-05-24T16:07:26.817Z,8.55
2023-05-24T16:09:54.242Z,15.90
2023-05-24T16:12:21.980Z,8.15
2023-05-24T16:14:49.476Z,6.32
2023-05-24T16:17:16.780Z,7.10
2023-05-24T16:19:46.412Z,7.30
2023-05-24T16:22:14.192Z,9.52
2023-05-24T16:24:41.917Z,10.48
2023-05-24T16:27:09.423Z,6.55
2023-05-24T16:29:37.281Z,7.60
2023-05-24T16:32:05.089Z,10.52
2023-05-24T16:34:41.494Z,7.05
2023-05-24T16:37:19.768Z,12.32
2023-05-24T16:39:47.025Z,10.52
2023-05-24T16:42:14.329Z,11.32
2023-05-24T16:44:41.645Z,8.35
2023-05-24T16:47:09.060Z,8.60
2023-05-24T16:49:36.478Z,12.98
2023-05-24T16:52:03.845Z,12.52
2023-05-24T16:54:31.253Z,9.40
2023-05-24T16:56:58.542Z,8.40
2023-05-24T16:59:25.867Z,9.55
2023-05-24T17:01:53.237Z,11.60
2023-05-24T17:04:21.073Z,12.90
2023-05-24T17:06:48.346Z,12.95
2023-05-24T17:09:15.928Z,8.18
2023-05-24T17:11:43.194Z,11.50
2023-05-24T17:14:10.547Z,16.08
2023-05-24T17:16:37.928Z,17.48
2023-05-24T17:19:05.685Z,22.35
2023-05-24T17:21:33.241Z,12.15
2023-05-24T17:24:00.931Z,11.65
2023-05-24T17:26:28.343Z,12.70
2023-05-24T17:28:57.046Z,18.08
2023-05-24T17:31:24.800Z,10.43
2023-05-24T17:33:52.360Z,11.13
2023-05-24T17:36:22.382Z,16.15
2023-05-24T17:38:50.317Z,19.35
2023-05-24T17:41:17.758Z,11.88
2023-05-24T17:43:46.342Z,14.95
2023-05-24T17:46:14.119Z,10.32
2023-05-24T17:48:42.901Z,15.32
2023-05-24T17:51:11.065Z,17.30
2023-05-24T17:53:40.882Z,13.70
2023-05-24T17:56:08.800Z,14.15
2023-05-24T17:58:37.159Z,14.23
2023-05-24T18:01:10.129Z,17.45
2023-05-24T18:03:38.968Z,18.70
2023-05-24T18:06:07.380Z,12.23
2023-05-24T18:08:37.752Z,11.40
2023-05-24T18:11:08.655Z,13.73
2023-05-24T18:13:39.556Z,9.30
2023-05-24T18:16:07.991Z,10.50
2023-05-24T18:18:35.588Z,15.10
2023-05-24T18:21:02.915Z,14.70
2023-05-24T18:23:31.189Z,13.55
2023-05-24T18:26:00.619Z,12.32
2023-05-24T18:28:30.292Z,13.55
2023-05-24T18:30:57.558Z,13.20
2023-05-24T18:33:25.047Z,14.80
2023-05-24T18:35:52.724Z,10.13
2023-05-24T18:38:20.031Z,11.48
2023-05-24T18:40:47.405Z,13.32
2023-05-24T18:43:14.971Z,10.02
2023-05-24T18:45:42.537Z,13.13
2023-05-24T18:48:10.237Z,10.30
2023-05-24T18:50:37.492Z,10.32
2023-05-24T18:53:04.773Z,13.43
2023-05-24T18:55:32.016Z,9.25
2023-05-24T18:57:59.358Z,9.75
2023-05-24T19:02:38.870Z,11.75
2023-05-24T19:05:07.263Z,9.70
2023-05-24T19:07:35.424Z,17.85
2023-05-24T19:10:03.028Z,12.40
2023-05-24T19:12:30.457Z,12.05
2023-05-24T19:14:59.781Z,11.68
2023-05-24T19:17:27.266Z,11.23
2023-05-24T19:19:54.637Z,14.57
2023-05-24T19:22:22.125Z,13.95
2023-05-24T19:24:49.553Z,14.35
2023-05-24T19:27:16.899Z,12.45
2023-05-24T19:29:44.365Z,13.85
2023-05-24T19:32:11.913Z,15.95
2023-05-24T19:34:42.420Z,15.27
2023-05-24T19:37:10.161Z,16.83
2023-05-24T19:39:37.991Z,10.82
2023-05-24T19:42:06.486Z,11.13
2023-05-24T19:44:35.441Z,16.55
2023-05-24T19:49:30.410Z,10.25
2023-05-24T19:51:57.736Z,16.20
2023-05-24T19:54:24.987Z,17.08
2023-05-24T19:56:52.561Z,16.02
2023-05-24T19:59:19.848Z,13.23
2023-05-24T20:01:47.241Z,15.23
2023-05-24T20:04:14.706Z,13.40
2023-05-24T20:06:42.164Z,12.18
2023-05-24T20:09:09.506Z,12.63
2023-05-24T20:11:36.743Z,14.85
2023-05-24T20:14:04.385Z,13.32
2023-05-24T20:16:31.664Z,13.13
2023-05-24T20:18:59.085Z,16.73
2023-05-24T20:21:26.465Z,16.65
2023-05-24T20:23:58.493Z,15.02
2023-05-24T20:26:26.274Z,15.13
2023-05-24T20:28:53.895Z,12.18
2023-05-24T20:31:21.386Z,10.35
2023-05-24T20:33:51.434Z,11.20
2023-05-24T20:36:18.722Z,11.73
2023-05-24T20:38:46.014Z,11.07
2023-05-24T20:41:13.300Z,11.30
2023-05-24T20:43:40.581Z,12.50
2023-05-24T20:46:07.860Z,14.70
2023-05-24T20:48:35.319Z,21.05
2023-05-24T20:51:02.803Z,12.57
2023-05-24T20:53:30.021Z,13.02
2023-05-24T20:55:57.326Z,11.80
2023-05-24T20:58:24.755Z,17.65
2023-05-24T21:00:51.985Z,16.35
2023-05-24T21:03:19.247Z,15.32
2023-05-24T21:05:46.596Z,15.77
2023-05-24T21:08:14.212Z,16.02
2023-05-24T21:10:42.082Z,16.48
2023-05-24T21:13:09.409Z,16.15
2023-05-24T21:15:36.811Z,9.38
2023-05-24T21:18:04.672Z,9.50
2023-05-24T21:20:32.028Z,13.02
2023-05-24T21:23:00.066Z,10.73
2023-05-24T21:25:27.412Z,12.82
2023-05-24T21:27:54.641Z,10.27
2023-05-24T21:30:21.939Z,7.45
2023-05-24T21:32:49.218Z,7.03
2023-05-24T21:35:16.607Z,9.32
2023-05-24T21:37:43.835Z,10.57
2023-05-24T21:40:11.419Z,12.85
2023-05-24T21:42:41.986Z,8.73
2023-05-24T21:45:09.608Z,10.73
2023-05-24T21:47:36.939Z,10.30
2023-05-24T21:50:05.339Z,9.18
2023-05-24T21:52:34.166Z,7.20
2023-05-24T21:55:02.390Z,13.77
2023-05-24T21:57:30.046Z,7.05
2023-05-24T21:59:57.716Z,7.75
2023-05-24T22:02:24.955Z,9.32
2023-05-24T22:04:52.465Z,7.80
2023-05-24T22:07:19.927Z,11.18
2023-05-24T22:09:47.416Z,10.85
2023-05-24T22:12:14.797Z,10.55
2023-05-24T22:14:42.295Z,6.82
2023-05-24T22:17:09.566Z,11.50
2023-05-24T22:19:39.860Z,6.40
2023-05-24T22:22:08.320Z,7.45
2023-05-24T22:24:36.149Z,6.57
2023-05-24T22:27:04.229Z,8.98
2023-05-24T22:29:31.524Z,6.15
2023-05-24T22:31:58.843Z,4.75
2023-05-24T22:34:27.798Z,7.47
2023-05-24T22:36:57.210Z,6.53
2023-05-24T22:39:24.870Z,6.75
2023-05-24T22:41:52.727Z,7.20
2023-05-24T22:44:20.073Z,7.32
2023-05-24T22:46:50.404Z,7.22
2023-05-24T22:49:19.379Z,8.60
2023-05-24T22:51:48.376Z,7.28
2023-05-24T22:54:16.703Z,6.68
2023-05-24T22:56:44.538Z,8.00
2023-05-24T22:59:12.063Z,10.07
2023-05-24T23:01:42.375Z,8.70
2023-05-24T23:04:20.449Z,5.40
2023-05-24T23:06:52.143Z,9.15
2023-05-24T23:09:28.905Z,4.38
2023-05-24T23:11:58.467Z,8.77
2023-05-24T23:14:26.105Z,10.85
2023-05-24T23:16:54.233Z,12.20
2023-05-24T23:19:21.591Z,9.67
2023-05-24T23:21:52.298Z,5.85
2023-05-24T23:24:19.545Z,13.80
2023-05-24T23:26:46.804Z,6.50
2023-05-24T23:29:14.267Z,8.52
2023-05-24T23:31:41.672Z,12.05
2023-05-24T23:34:08.925Z,10.52
2023-05-24T23:36:36.531Z,9.05
2023-05-24T23:39:03.961Z,4.30
2023-05-24T23:41:31.457Z,8.50
2023-05-24T23:43:58.656Z,5.55
2023-05-24T23:46:25.979Z,7.40
2023-05-24T23:48:53.219Z,5.40
2023-05-24T23:51:20.612Z,7.32
2023-05-24T23:53:47.838Z,8.32
2023-05-24T23:56:15.127Z,7.90
2023-05-24T23:58:43.796Z,8.15
